createdAt,value
2018-07-05T00:00:17.887Z,72.40
2018-07-05T00:02:57.611Z,72.20
2018-07-05T00:05:37.236Z,72.10
2018-07-05T00:08:16.831Z,71.80
2018-07-05T00:10:56.547Z,71.70
2018-07-05T00:13:36.322Z,71.60
2018-07-05T00:16:15.990Z,71.60
2018-07-05T00:18:55.655Z,71.50
2018-07-05T00:21:35.274Z,71.70
2018-07-05T00:24:15.079Z,71.80
2018-07-05T00:26:54.740Z,71.20
2018-07-05T00:29:34.400Z,71.80
2018-07-05T00:32:14.149Z,72.00
2018-07-05T00:34:53.787Z,72.10
2018-07-05T00:37:33.409Z,72.30
2018-07-05T00:40:13.064Z,72.40
2018-07-05T00:42:52.638Z,72.30
2018-07-05T00:45:32.226Z,72.30
2018-07-05T00:48:12.036Z,72.30
2018-07-05T00:50:51.776Z,72.20
2018-07-05T00:56:04.996Z,72.20
2018-07-05T00:58:44.687Z,72.20
2018-07-05T01:01:24.399Z,72.20
2018-07-05T01:04:03.983Z,72.30
2018-07-05T01:06:43.647Z,72.30
2018-07-05T01:09:23.468Z,72.20
2018-07-05T01:12:03.111Z,72.30
2018-07-05T01:14:42.779Z,72.40
2018-07-05T01:17:22.430Z,72.60
2018-07-05T01:20:02.028Z,72.60
2018-07-05T01:22:41.627Z,72.60
2018-07-05T01:25:21.346Z,72.60
2018-07-05T01:28:00.886Z,72.60
2018-07-05T01:30:40.593Z,72.60
2018-07-05T01:33:21.268Z,72.80
2018-07-05T01:36:00.895Z,72.70
2018-07-05T01:38:40.588Z,72.60
2018-07-05T01:41:20.131Z,72.50
2018-07-05T01:44:00.006Z,72.50
2018-07-05T01:46:39.518Z,72.60
2018-07-05T01:49:18.981Z,72.80
2018-07-05T01:51:58.759Z,72.90
2018-07-05T01:54:38.326Z,72.90
2018-07-05T01:57:17.848Z,73.00
2018-07-05T01:59:57.655Z,73.00
2018-07-05T02:02:37.242Z,73.20
2018-07-05T02:05:16.953Z,73.40
2018-07-05T02:07:56.656Z,73.40
2018-07-05T02:10:36.262Z,73.30
2018-07-05T02:13:16.058Z,73.30
2018-07-05T02:15:56.234Z,73.20
2018-07-05T02:18:35.967Z,72.90
2018-07-05T02:21:15.441Z,73.20
2018-07-05T02:23:55.082Z,73.60
2018-07-05T02:26:34.785Z,73.00
2018-07-05T02:29:14.274Z,73.20
2018-07-05T02:31:54.239Z,73.30
2018-07-05T02:34:33.941Z,73.40
2018-07-05T02:37:19.250Z,73.50
2018-07-05T02:39:58.839Z,73.50
2018-07-05T02:42:38.427Z,73.40
2018-07-05T02:45:18.055Z,73.40
2018-07-05T02:47:57.852Z,73.40
2018-07-05T02:50:37.679Z,73.70
2018-07-05T02:53:17.331Z,73.60
2018-07-05T02:55:56.926Z,73.70
2018-07-05T02:58:36.542Z,73.70
2018-07-05T03:01:16.156Z,73.70
2018-07-05T03:03:55.781Z,73.60
2018-07-05T03:06:35.733Z,73.70
2018-07-05T03:09:15.205Z,73.70
2018-07-05T03:11:54.756Z,73.70
2018-07-05T03:14:34.895Z,73.70
2018-07-05T03:17:14.435Z,73.50
2018-07-05T03:19:53.934Z,73.30
2018-07-05T03:22:33.441Z,73.40
2018-07-05T03:25:13.464Z,73.60
2018-07-05T03:27:52.852Z,73.80
2018-07-05T03:30:32.858Z,73.90
2018-07-05T03:33:12.561Z,74.10
2018-07-05T03:35:52.001Z,74.00
2018-07-05T03:38:31.888Z,73.90
2018-07-05T03:41:11.399Z,74.10
2018-07-05T03:43:51.070Z,74.30
2018-07-05T03:46:30.690Z,74.40
2018-07-05T03:49:10.502Z,74.50
2018-07-05T03:51:50.250Z,74.60
2018-07-05T03:54:29.847Z,74.50
2018-07-05T03:57:09.670Z,74.20
2018-07-05T03:59:50.295Z,74.50
2018-07-05T04:02:29.965Z,74.50
2018-07-05T04:05:09.549Z,74.50
2018-07-05T04:07:49.158Z,74.30
2018-07-05T04:10:28.768Z,74.20
2018-07-05T04:13:08.394Z,74.00
2018-07-05T04:15:48.120Z,73.90
2018-07-05T04:18:27.754Z,73.70
2018-07-05T04:21:07.482Z,73.70
2018-07-05T04:23:46.995Z,73.70
2018-07-05T04:26:26.636Z,73.60
2018-07-05T04:29:06.232Z,73.70
2018-07-05T04:31:45.934Z,73.80
2018-07-05T04:34:25.597Z,73.90
2018-07-05T04:37:05.226Z,73.90
2018-07-05T04:39:44.774Z,73.90
2018-07-05T04:42:24.290Z,73.90
2018-07-05T04:45:03.836Z,73.60
2018-07-05T04:47:43.550Z,73.50
2018-07-05T04:50:23.231Z,73.20
2018-07-05T04:53:02.830Z,72.90
2018-07-05T04:55:42.495Z,73.00
2018-07-05T04:58:22.202Z,72.50
2018-07-05T05:01:01.780Z,72.30
2018-07-05T05:03:41.483Z,72.30
2018-07-05T05:06:21.167Z,72.20
2018-07-05T05:09:00.757Z,71.90
2018-07-05T05:11:40.286Z,71.50
2018-07-05T05:14:19.937Z,71.20
2018-07-05T05:16:59.546Z,71.20
2018-07-05T05:19:40.462Z,70.80
2018-07-05T05:22:20.019Z,70.70
2018-07-05T05:24:59.746Z,70.20
2018-07-05T05:27:39.457Z,69.80
2018-07-05T05:30:19.105Z,69.20
2018-07-05T05:32:58.818Z,68.50
2018-07-05T05:35:38.567Z,68.40
2018-07-05T05:38:18.226Z,68.30
2018-07-05T05:40:57.846Z,67.90
2018-07-05T05:43:37.334Z,68.10
2018-07-05T05:46:16.981Z,67.60
2018-07-05T05:48:56.819Z,67.60
2018-07-05T05:51:36.350Z,67.20
2018-07-05T05:54:16.026Z,65.70
2018-07-05T05:56:55.792Z,64.70
2018-07-05T05:59:35.422Z,64.20
2018-07-05T06:02:15.277Z,63.30
2018-07-05T06:04:54.951Z,63.00
2018-07-05T06:07:34.656Z,61.40
2018-07-05T06:10:14.512Z,61.10
2018-07-05T06:12:54.619Z,60.60
2018-07-05T06:15:34.244Z,60.30
2018-07-05T06:18:14.075Z,59.90
2018-07-05T06:20:53.982Z,59.30
2018-07-05T06:23:33.894Z,59.10
2018-07-05T06:26:13.663Z,59.00
2018-07-05T06:28:53.507Z,59.30
2018-07-05T06:31:33.340Z,59.40
2018-07-05T06:34:13.168Z,59.40
2018-07-05T06:36:53.042Z,59.50
2018-07-05T06:39:32.937Z,59.00
2018-07-05T06:42:12.946Z,58.90
2018-07-05T06:44:52.574Z,58.90
2018-07-05T06:47:32.151Z,57.60
2018-07-05T06:50:11.742Z,57.10
2018-07-05T06:52:51.448Z,57.30
2018-07-05T06:55:31.111Z,56.30
2018-07-05T06:58:10.974Z,56.10
2018-07-05T07:00:50.844Z,55.90
2018-07-05T07:03:30.534Z,55.70
2018-07-05T07:06:10.190Z,55.80
2018-07-05T07:08:49.968Z,56.00
2018-07-05T07:11:29.375Z,55.70
2018-07-05T07:14:08.988Z,55.60
2018-07-05T07:16:48.644Z,55.40
2018-07-05T07:19:28.308Z,55.10
2018-07-05T07:22:08.027Z,55.00
2018-07-05T07:24:47.591Z,54.60
2018-07-05T07:27:27.401Z,55.40
2018-07-05T07:30:07.154Z,55.00
2018-07-05T07:32:46.804Z,54.60
2018-07-05T07:35:26.383Z,54.60
2018-07-05T07:38:06.008Z,54.30
2018-07-05T07:40:45.533Z,53.80
2018-07-05T07:43:12.746Z,53.30
2018-07-05T07:45:39.979Z,52.90
2018-07-05T07:48:07.276Z,52.60
2018-07-05T07:50:34.682Z,52.30
2018-07-05T07:53:01.909Z,52.40
2018-07-05T07:55:29.131Z,52.30
2018-07-05T07:57:56.375Z,51.70
2018-07-05T08:00:23.570Z,51.40
2018-07-05T08:02:50.787Z,51.10
2018-07-05T08:05:17.987Z,51.20
2018-07-05T08:07:45.234Z,50.50
2018-07-05T08:10:12.433Z,50.00
2018-07-05T08:12:39.658Z,49.80
2018-07-05T08:15:07.008Z,49.50
2018-07-05T08:17:34.254Z,48.50
2018-07-05T08:20:01.489Z,48.40
2018-07-05T08:24:56.246Z,47.60
2018-07-05T08:27:23.447Z,48.10
2018-07-05T08:32:18.235Z,48.30
2018-07-05T08:34:45.443Z,48.60
2018-07-05T08:37:12.898Z,48.50
2018-07-05T08:39:40.082Z,48.10
2018-07-05T08:42:07.315Z,47.50
2018-07-05T08:44:34.613Z,48.20
2018-07-05T08:47:01.838Z,47.80
2018-07-05T08:49:29.050Z,47.80
2018-07-05T08:51:56.358Z,47.90
2018-07-05T08:54:23.557Z,47.50
2018-07-05T08:56:50.960Z,47.80
2018-07-05T08:59:18.171Z,48.10
2018-07-05T09:01:45.478Z,48.40
2018-07-05T09:04:12.718Z,48.30
2018-07-05T09:06:39.938Z,48.70
2018-07-05T09:09:07.166Z,48.20
2018-07-05T09:11:34.362Z,47.40
2018-07-05T09:14:01.620Z,46.70
2018-07-05T09:16:28.826Z,46.30
2018-07-05T09:18:56.099Z,46.40
2018-07-05T09:21:23.301Z,46.90
2018-07-05T09:23:50.597Z,47.00
2018-07-05T09:26:17.739Z,47.50
2018-07-05T09:28:45.012Z,47.20
2018-07-05T09:31:12.254Z,47.20
2018-07-05T09:33:39.484Z,46.60
2018-07-05T09:38:34.230Z,48.50
2018-07-05T09:41:01.468Z,47.50
2018-07-05T09:43:28.694Z,46.90
2018-07-05T09:45:55.929Z,46.70
2018-07-05T09:48:23.186Z,46.90
2018-07-05T09:50:50.406Z,46.80
2018-07-05T09:53:17.661Z,46.70
2018-07-05T09:55:44.927Z,46.70
2018-07-05T09:58:12.168Z,47.10
2018-07-05T10:00:44.885Z,47.20
2018-07-05T10:03:12.116Z,46.80
2018-07-05T10:05:39.404Z,46.80
2018-07-05T10:08:06.620Z,46.80
2018-07-05T10:10:33.826Z,47.60
2018-07-05T10:13:01.202Z,48.60
2018-07-05T10:15:28.349Z,49.00
2018-07-05T10:17:55.583Z,48.80
2018-07-05T10:20:22.820Z,48.60
2018-07-05T10:22:50.052Z,48.60
2018-07-05T10:25:18.299Z,48.60
2018-07-05T10:27:45.517Z,48.50
2018-07-05T10:30:25.298Z,48.70
2018-07-05T10:33:04.845Z,49.40
2018-07-05T10:35:32.073Z,50.00
2018-07-05T10:38:01.294Z,50.20
2018-07-05T10:40:42.099Z,50.40
2018-07-05T10:43:21.760Z,50.20
2018-07-05T10:46:01.724Z,50.00
2018-07-05T10:48:41.314Z,50.40
2018-07-05T10:51:21.791Z,49.60
2018-07-05T10:56:34.995Z,49.70
2018-07-05T10:59:14.728Z,49.30
2018-07-05T11:01:54.362Z,50.00
2018-07-05T11:04:34.166Z,49.30
2018-07-05T11:07:13.798Z,49.00
2018-07-05T11:09:53.512Z,48.50
2018-07-05T11:12:33.304Z,47.80
2018-07-05T11:15:12.950Z,47.10
2018-07-05T11:17:52.614Z,47.30
2018-07-05T11:20:32.327Z,47.10
2018-07-05T11:23:12.150Z,46.80
2018-07-05T11:25:52.587Z,46.00
2018-07-05T11:28:32.265Z,45.90
2018-07-05T11:31:11.998Z,45.80
2018-07-05T11:33:51.562Z,45.90
2018-07-05T11:36:31.316Z,45.10
2018-07-05T11:39:11.062Z,44.60
2018-07-05T11:41:50.643Z,43.70
2018-07-05T11:44:30.439Z,44.10
2018-07-05T11:47:10.118Z,44.30
2018-07-05T11:49:49.571Z,43.70
2018-07-05T11:52:29.450Z,43.90
2018-07-05T11:55:10.113Z,42.30
2018-07-05T11:57:49.820Z,41.80
2018-07-05T12:00:29.436Z,42.10
2018-07-05T12:03:08.982Z,42.40
2018-07-05T12:05:48.520Z,42.90
2018-07-05T12:08:28.301Z,43.00
2018-07-05T12:11:08.138Z,41.70
2018-07-05T12:13:49.052Z,40.60
2018-07-05T12:16:28.827Z,40.80
2018-07-05T12:19:08.470Z,40.70
2018-07-05T12:21:48.239Z,41.00
2018-07-05T12:24:27.866Z,40.90
2018-07-05T12:27:07.398Z,40.70
2018-07-05T12:29:47.026Z,40.50
2018-07-05T12:35:00.202Z,39.30
2018-07-05T12:37:39.883Z,39.60
2018-07-05T12:40:19.485Z,40.00
2018-07-05T12:42:59.237Z,39.70
2018-07-05T12:45:38.803Z,39.70
2018-07-05T12:48:18.372Z,39.80
2018-07-05T12:50:57.845Z,39.90
2018-07-05T12:53:37.547Z,40.60
2018-07-05T12:56:17.265Z,40.60
2018-07-05T12:58:56.779Z,40.80
2018-07-05T13:01:36.675Z,41.60
2018-07-05T13:04:16.469Z,42.10
2018-07-05T13:06:56.136Z,42.60
2018-07-05T13:09:35.659Z,43.00
2018-07-05T13:12:15.265Z,42.60
2018-07-05T13:14:54.842Z,43.00
2018-07-05T13:17:34.526Z,43.10
2018-07-05T13:20:14.217Z,43.10
2018-07-05T13:22:53.857Z,43.10
2018-07-05T13:25:33.606Z,43.20
2018-07-05T13:28:13.303Z,43.20
2018-07-05T13:30:52.846Z,42.90
2018-07-05T13:33:32.534Z,42.60
2018-07-05T13:36:12.224Z,43.00
2018-07-05T13:38:51.873Z,42.00
2018-07-05T13:41:31.532Z,42.00
2018-07-05T13:44:11.263Z,41.90
2018-07-05T13:46:50.973Z,41.50
2018-07-05T13:49:30.592Z,41.00
2018-07-05T13:52:10.251Z,40.70
2018-07-05T13:54:49.868Z,40.80
2018-07-05T13:57:29.540Z,40.50
2018-07-05T14:00:09.266Z,41.00
2018-07-05T14:02:48.828Z,41.00
2018-07-05T14:05:28.375Z,41.00
2018-07-05T14:08:09.144Z,41.10
2018-07-05T14:10:48.672Z,41.20
2018-07-05T14:13:28.718Z,41.10
2018-07-05T14:16:08.266Z,40.90
2018-07-05T14:18:48.072Z,41.00
2018-07-05T14:21:27.617Z,40.60
2018-07-05T14:24:07.299Z,41.00
2018-07-05T14:26:46.820Z,41.00
2018-07-05T14:29:26.457Z,41.90
2018-07-05T14:34:39.799Z,42.00
2018-07-05T14:37:19.645Z,42.00
2018-07-05T14:39:59.266Z,41.40
2018-07-05T14:42:38.840Z,41.50
2018-07-05T14:45:18.811Z,41.40
2018-07-05T14:47:58.591Z,41.30
2018-07-05T14:50:38.298Z,40.80
2018-07-05T14:53:18.130Z,40.50
2018-07-05T14:55:57.655Z,40.60
2018-07-05T14:58:37.306Z,40.90
2018-07-05T15:01:17.024Z,41.10
2018-07-05T15:03:56.816Z,41.30
2018-07-05T15:06:36.463Z,41.10
2018-07-05T15:09:16.072Z,41.20
2018-07-05T15:11:56.686Z,41.00
2018-07-05T15:14:36.238Z,40.60
2018-07-05T15:17:16.089Z,40.50
2018-07-05T15:19:55.689Z,40.40
2018-07-05T15:22:35.254Z,40.50
2018-07-05T15:25:14.796Z,40.60
2018-07-05T15:27:54.565Z,40.70
2018-07-05T15:30:34.329Z,40.60
2018-07-05T15:33:14.028Z,40.30
2018-07-05T15:35:53.638Z,40.40
2018-07-05T15:38:33.326Z,40.30
2018-07-05T15:41:12.718Z,40.20
2018-07-05T15:43:52.373Z,40.00
2018-07-05T15:46:32.154Z,40.10
2018-07-05T15:49:11.935Z,39.90
2018-07-05T15:51:51.691Z,39.70
2018-07-05T15:54:31.327Z,39.20
2018-07-05T15:57:10.958Z,38.70
2018-07-05T15:59:50.654Z,38.80
2018-07-05T16:02:30.343Z,38.40
2018-07-05T16:05:10.080Z,39.20
2018-07-05T16:07:49.625Z,38.80
2018-07-05T16:10:29.242Z,38.80
2018-07-05T16:13:08.912Z,38.70
2018-07-05T16:18:23.013Z,38.00
2018-07-05T16:21:02.639Z,37.80
2018-07-05T16:23:42.287Z,38.10
2018-07-05T16:26:21.887Z,37.70
2018-07-05T16:29:01.528Z,37.50
2018-07-05T16:31:41.335Z,37.30
2018-07-05T16:34:20.972Z,37.30
2018-07-05T16:37:01.229Z,37.30
2018-07-05T16:42:14.696Z,37.60
2018-07-05T16:44:54.306Z,38.20
2018-07-05T16:47:33.995Z,38.70
2018-07-05T16:50:15.753Z,38.90
2018-07-05T16:52:55.041Z,38.90
2018-07-05T16:55:34.591Z,38.40
2018-07-05T16:58:14.842Z,38.90
2018-07-05T17:00:54.525Z,39.30
2018-07-05T17:03:34.075Z,39.80
2018-07-05T17:06:13.750Z,39.80
2018-07-05T17:08:53.478Z,39.60
2018-07-05T17:11:32.970Z,39.50
2018-07-05T17:14:12.484Z,39.50
2018-07-05T17:16:52.226Z,39.50
2018-07-05T17:19:31.970Z,39.90
2018-07-05T17:22:11.699Z,39.90
2018-07-05T17:24:52.292Z,40.00
2018-07-05T17:27:32.082Z,40.20
2018-07-05T17:30:11.790Z,40.40
2018-07-05T17:32:51.492Z,40.50
2018-07-05T17:35:32.098Z,40.60
2018-07-05T17:38:11.819Z,40.70
2018-07-05T17:40:51.635Z,40.50
2018-07-05T17:43:31.161Z,40.20
2018-07-05T17:46:10.784Z,40.00
2018-07-05T17:48:50.480Z,40.30
2018-07-05T17:51:30.042Z,40.50
2018-07-05T17:54:09.763Z,40.00
2018-07-05T17:56:49.637Z,40.30
2018-07-05T17:59:29.210Z,40.10
2018-07-05T18:02:08.909Z,39.80
2018-07-05T18:04:48.408Z,39.60
2018-07-05T18:07:28.281Z,39.00
2018-07-05T18:10:07.950Z,38.80
2018-07-05T18:12:47.728Z,38.70
2018-07-05T18:15:27.431Z,39.00
2018-07-05T18:18:07.061Z,38.80
2018-07-05T18:20:46.895Z,38.30
2018-07-05T18:23:26.755Z,38.10
2018-07-05T18:26:06.601Z,38.00
2018-07-05T18:28:46.374Z,37.20
2018-07-05T18:31:26.066Z,37.50
2018-07-05T18:34:05.660Z,37.40
2018-07-05T18:36:45.398Z,37.90
2018-07-05T18:39:25.063Z,37.20
2018-07-05T18:42:04.748Z,37.00
2018-07-05T18:44:44.628Z,37.10
2018-07-05T18:47:24.274Z,36.80
2018-07-05T18:50:03.798Z,36.70
2018-07-05T18:52:43.420Z,36.90
2018-07-05T18:55:23.018Z,37.00
2018-07-05T18:58:02.785Z,37.10
2018-07-05T19:00:42.735Z,37.00
2018-07-05T19:03:22.531Z,37.10
2018-07-05T19:06:03.090Z,36.90
2018-07-05T19:08:42.667Z,37.30
2018-07-05T19:11:22.300Z,37.30
2018-07-05T19:14:01.839Z,37.70
2018-07-05T19:16:41.567Z,37.90
2018-07-05T19:19:21.091Z,38.20
2018-07-05T19:22:00.738Z,38.30
2018-07-05T19:24:40.542Z,38.70
2018-07-05T19:27:20.196Z,38.70
2018-07-05T19:29:59.907Z,39.00
2018-07-05T19:32:40.402Z,39.10
2018-07-05T19:35:20.144Z,39.20
2018-07-05T19:38:00.704Z,39.50
2018-07-05T19:40:40.431Z,39.90
2018-07-05T19:43:20.171Z,40.00
2018-07-05T19:45:59.877Z,40.10
2018-07-05T19:48:39.638Z,40.30
2018-07-05T19:51:19.330Z,40.50
2018-07-05T19:53:58.958Z,40.80
2018-07-05T19:56:38.550Z,41.10
2018-07-05T19:59:18.177Z,41.40
2018-07-05T20:01:57.794Z,41.60
2018-07-05T20:04:37.468Z,41.90
2018-07-05T20:07:19.084Z,41.90
2018-07-05T20:09:59.793Z,42.50
2018-07-05T20:12:39.377Z,42.80
2018-07-05T20:15:19.243Z,43.10
2018-07-05T20:17:58.981Z,43.40
2018-07-05T20:20:38.595Z,43.60
2018-07-05T20:23:18.216Z,44.00
2018-07-05T20:25:57.983Z,44.10
2018-07-05T20:28:37.446Z,44.50
2018-07-05T20:31:16.968Z,44.70
2018-07-05T20:33:56.655Z,44.90
2018-07-05T20:36:36.534Z,45.00
2018-07-05T20:39:16.320Z,45.30
2018-07-05T20:41:55.832Z,45.50
2018-07-05T20:44:35.422Z,45.60
2018-07-05T20:47:15.088Z,45.80
2018-07-05T20:49:54.746Z,45.90
2018-07-05T20:52:34.227Z,46.10
2018-07-05T20:55:14.064Z,46.30
2018-07-05T20:57:53.674Z,46.60
2018-07-05T21:00:33.433Z,46.90
2018-07-05T21:05:46.662Z,47.10
2018-07-05T21:08:26.463Z,47.20
2018-07-05T21:11:06.165Z,47.20
2018-07-05T21:13:45.728Z,47.20
2018-07-05T21:16:25.498Z,47.10
2018-07-05T21:19:05.252Z,47.00
2018-07-05T21:21:44.914Z,46.80
2018-07-05T21:24:24.566Z,46.60
2018-07-05T21:27:04.231Z,46.60
2018-07-05T21:29:44.105Z,46.30
2018-07-05T21:32:23.846Z,46.30
2018-07-05T21:35:03.499Z,46.20
2018-07-05T21:37:43.217Z,46.10
2018-07-05T21:40:22.924Z,45.90
2018-07-05T21:43:02.533Z,45.90
2018-07-05T21:45:42.297Z,45.80
2018-07-05T21:48:21.816Z,45.60
2018-07-05T21:51:01.442Z,45.90
2018-07-05T21:53:41.158Z,45.90
2018-07-05T21:58:54.474Z,46.00
2018-07-05T22:01:34.097Z,46.00
2018-07-05T22:04:13.800Z,46.10
2018-07-05T22:06:53.228Z,46.10
2018-07-05T22:09:34.064Z,46.10
2018-07-05T22:12:13.552Z,46.20
2018-07-05T22:14:53.120Z,46.40
2018-07-05T22:17:38.430Z,46.50
2018-07-05T22:20:23.503Z,46.50
2018-07-05T22:23:08.667Z,46.90
2018-07-05T22:25:53.914Z,47.00
2018-07-05T22:28:39.047Z,47.10
2018-07-05T22:31:24.258Z,47.30
2018-07-05T22:34:03.845Z,47.40
2018-07-05T22:36:43.469Z,47.50
2018-07-05T22:39:23.639Z,47.70
2018-07-05T22:42:03.259Z,48.10
2018-07-05T22:44:42.918Z,48.20
2018-07-05T22:47:22.526Z,49.00
2018-07-05T22:50:02.265Z,48.50
2018-07-05T22:52:41.834Z,48.70
2018-07-05T22:55:21.497Z,48.80
2018-07-05T22:58:01.095Z,49.00
2018-07-05T23:00:40.705Z,49.20
2018-07-05T23:03:20.453Z,49.70
2018-07-05T23:08:33.844Z,50.50
2018-07-05T23:11:13.609Z,50.40
2018-07-05T23:13:53.258Z,51.40
2018-07-05T23:16:32.883Z,51.20
2018-07-05T23:19:12.758Z,51.50
2018-07-05T23:21:52.552Z,51.70
2018-07-05T23:24:32.153Z,52.00
2018-07-05T23:27:11.656Z,52.00
2018-07-05T23:29:51.379Z,52.10
2018-07-05T23:32:31.127Z,52.40
2018-07-05T23:35:11.035Z,52.70
2018-07-05T23:37:50.722Z,53.50
2018-07-05T23:40:30.528Z,54.10
2018-07-05T23:43:10.279Z,54.70
2018-07-05T23:45:50.002Z,55.10
2018-07-05T23:48:29.438Z,55.60
2018-07-05T23:51:09.047Z,56.20
2018-07-05T23:53:48.776Z,56.30
2018-07-05T23:56:28.283Z,56.60
2018-07-05T23:59:07.693Z,57.10
